createdAt,value
2019-03-23T00:00:08.692Z,6.30
2019-03-23T00:02:49.247Z,6.20
2019-03-23T00:05:30.324Z,6.10
2019-03-23T00:08:11.404Z,6.00
2019-03-23T00:10:52.119Z,6.10
2019-03-23T00:13:32.744Z,6.00
2019-03-23T00:16:02.324Z,5.90
2019-03-23T00:18:50.741Z,5.80
2019-03-23T00:21:39.160Z,5.70
2019-03-23T00:24:20.174Z,5.70
2019-03-23T00:26:49.654Z,5.60
2019-03-23T00:29:37.984Z,5.50
2019-03-23T00:32:26.401Z,5.50
2019-03-23T00:35:07.760Z,5.50
2019-03-23T00:37:48.846Z,5.50
2019-03-23T00:40:29.554Z,5.60
2019-03-23T00:43:10.700Z,5.60
2019-03-23T00:45:51.399Z,5.60
2019-03-23T00:48:32.248Z,5.60
2019-03-23T00:51:12.929Z,5.50
2019-03-23T00:53:53.695Z,5.50
2019-03-23T00:56:34.903Z,5.40
2019-03-23T00:59:15.813Z,5.40
2019-03-23T01:01:56.569Z,5.40
2019-03-23T01:04:37.123Z,5.40
2019-03-23T01:07:17.839Z,5.40
2019-03-23T01:09:58.838Z,5.40
2019-03-23T01:12:39.817Z,5.40
2019-03-23T01:15:20.236Z,5.50
2019-03-23T01:18:00.976Z,5.60
2019-03-23T01:20:49.504Z,5.80
2019-03-23T01:23:25.624Z,5.70
2019-03-23T01:26:06.695Z,5.70
2019-03-23T01:28:47.472Z,5.60
2019-03-23T01:31:28.389Z,5.50
2019-03-23T01:34:09.280Z,5.50
2019-03-23T01:36:50.486Z,5.50
2019-03-23T01:39:31.266Z,5.50
2019-03-23T01:42:11.652Z,5.50
2019-03-23T01:44:52.504Z,5.40
2019-03-23T01:47:33.536Z,5.30
2019-03-23T01:50:14.308Z,5.20
2019-03-23T01:52:55.264Z,5.20
2019-03-23T01:55:36.044Z,5.20
2019-03-23T01:58:16.828Z,5.00
2019-03-23T02:00:57.628Z,5.00
2019-03-23T02:03:38.489Z,4.90
2019-03-23T02:06:19.671Z,4.90
2019-03-23T02:09:00.520Z,4.80
2019-03-23T02:11:41.364Z,4.70
2019-03-23T02:14:22.020Z,4.70
2019-03-23T02:17:03.303Z,4.60
2019-03-23T02:19:43.969Z,4.50
2019-03-23T02:22:24.932Z,4.50
2019-03-23T02:25:05.626Z,4.60
2019-03-23T02:27:46.276Z,4.70
2019-03-23T02:30:27.182Z,4.70
2019-03-23T02:32:56.667Z,4.70
2019-03-23T02:35:45.115Z,4.80
2019-03-23T02:38:14.618Z,4.80
2019-03-23T02:41:02.981Z,4.80
2019-03-23T02:43:44.092Z,4.80
2019-03-23T02:46:24.750Z,4.80
2019-03-23T02:49:05.597Z,4.80
2019-03-23T02:51:46.516Z,4.80
2019-03-23T02:54:27.192Z,4.80
2019-03-23T02:57:08.244Z,4.70
2019-03-23T02:59:49.077Z,4.60
2019-03-23T03:02:29.883Z,4.50
2019-03-23T03:05:11.349Z,4.40
2019-03-23T03:07:52.565Z,4.50
2019-03-23T03:10:33.470Z,4.50
2019-03-23T03:13:14.047Z,4.50
2019-03-23T03:15:54.882Z,4.50
2019-03-23T03:18:35.682Z,4.50
2019-03-23T03:21:16.506Z,4.50
2019-03-23T03:23:46.011Z,4.50
2019-03-23T03:26:34.433Z,4.60
2019-03-23T03:29:22.854Z,4.50
2019-03-23T03:32:03.927Z,4.40
2019-03-23T03:34:44.695Z,4.40
2019-03-23T03:37:25.457Z,4.30
2019-03-23T03:40:05.938Z,4.30
2019-03-23T03:42:46.925Z,4.30
2019-03-23T03:45:27.703Z,4.20
2019-03-23T03:48:08.442Z,4.20
2019-03-23T03:50:49.621Z,4.10
2019-03-23T03:53:30.481Z,4.10
2019-03-23T03:56:11.510Z,4.00
2019-03-23T03:58:52.382Z,4.00
2019-03-23T04:01:33.149Z,4.10
2019-03-23T04:04:13.930Z,4.10
2019-03-23T04:06:54.713Z,4.10
2019-03-23T04:09:35.762Z,4.10
2019-03-23T04:12:16.910Z,4.00
2019-03-23T04:14:58.023Z,4.00
2019-03-23T04:17:38.971Z,4.10
2019-03-23T04:20:19.590Z,4.10
2019-03-23T04:23:00.143Z,4.00
2019-03-23T04:25:40.662Z,3.90
2019-03-23T04:28:21.484Z,3.80
2019-03-23T04:31:01.995Z,3.90
2019-03-23T04:33:43.239Z,3.90
2019-03-23T04:36:23.788Z,3.70
2019-03-23T04:39:05.139Z,3.60
2019-03-23T04:41:45.828Z,3.60
2019-03-23T04:44:26.565Z,3.50
2019-03-23T04:47:07.619Z,3.60
2019-03-23T04:49:48.542Z,3.60
2019-03-23T04:55:07.786Z,3.70
2019-03-23T04:57:48.722Z,3.70
2019-03-23T05:00:29.480Z,3.60
2019-03-23T05:03:10.690Z,3.60
2019-03-23T05:05:51.349Z,3.60
2019-03-23T05:08:33.671Z,3.60
2019-03-23T05:11:04.374Z,3.60
2019-03-23T05:13:52.789Z,3.60
2019-03-23T05:16:33.287Z,3.60
2019-03-23T05:19:14.148Z,3.50
2019-03-23T05:21:54.832Z,3.60
2019-03-23T05:24:35.629Z,3.60
2019-03-23T05:27:16.114Z,3.70
2019-03-23T05:29:57.414Z,3.70
2019-03-23T05:32:37.936Z,3.60
2019-03-23T05:35:18.984Z,3.60
2019-03-23T05:37:59.657Z,3.60
2019-03-23T05:40:40.757Z,3.60
2019-03-23T05:43:21.343Z,3.60
2019-03-23T05:46:01.764Z,3.60
2019-03-23T05:48:42.555Z,3.60
2019-03-23T05:51:23.420Z,3.70
2019-03-23T05:54:04.225Z,3.70
2019-03-23T05:56:45.422Z,3.70
2019-03-23T05:59:26.264Z,3.60
2019-03-23T06:02:07.108Z,3.60
2019-03-23T06:04:47.459Z,3.60
2019-03-23T06:07:27.861Z,3.60
2019-03-23T06:10:08.636Z,3.70
2019-03-23T06:12:49.390Z,3.70
2019-03-23T06:15:30.103Z,3.80
2019-03-23T06:18:11.088Z,3.80
2019-03-23T06:20:51.836Z,3.70
2019-03-23T06:23:32.632Z,3.70
2019-03-23T06:26:13.417Z,3.80
2019-03-23T06:28:54.125Z,3.80
2019-03-23T06:31:34.769Z,3.80
2019-03-23T06:34:15.608Z,3.80
2019-03-23T06:36:56.298Z,3.90
2019-03-23T06:39:37.040Z,4.10
2019-03-23T06:42:17.873Z,4.40
2019-03-23T06:44:58.832Z,4.70
2019-03-23T06:47:39.735Z,5.10
2019-03-23T06:50:20.856Z,5.50
2019-03-23T06:52:50.377Z,5.80
2019-03-23T06:55:38.726Z,6.10
2019-03-23T06:58:19.222Z,6.30
2019-03-23T07:00:59.836Z,6.60
2019-03-23T07:03:40.577Z,6.80
2019-03-23T07:06:21.384Z,7.00
2019-03-23T07:09:02.618Z,7.10
2019-03-23T07:11:43.647Z,7.20
2019-03-23T07:14:24.533Z,7.30
2019-03-23T07:17:06.938Z,7.40
2019-03-23T07:19:47.424Z,7.60
2019-03-23T07:22:28.627Z,7.80
2019-03-23T07:25:09.448Z,7.90
2019-03-23T07:27:50.151Z,8.10
2019-03-23T07:30:30.917Z,8.30
2019-03-23T07:33:11.580Z,8.40
2019-03-23T07:35:52.704Z,8.50
2019-03-23T07:38:33.425Z,8.70
2019-03-23T07:41:14.289Z,8.90
2019-03-23T07:43:54.969Z,9.00
2019-03-23T07:46:35.760Z,9.10
2019-03-23T07:49:16.358Z,9.20
2019-03-23T07:51:57.391Z,9.40
2019-03-23T07:54:37.826Z,9.60
2019-03-23T07:57:07.487Z,9.70
2019-03-23T07:59:55.838Z,9.80
2019-03-23T08:02:44.274Z,10.00
2019-03-23T08:05:25.349Z,10.10
2019-03-23T08:08:06.309Z,10.20
2019-03-23T08:10:47.051Z,10.30
2019-03-23T08:13:27.976Z,10.30
2019-03-23T08:16:08.397Z,10.50
2019-03-23T08:18:49.393Z,10.70
2019-03-23T08:21:30.217Z,10.90
2019-03-23T08:24:11.295Z,11.00
2019-03-23T08:26:52.240Z,11.20
2019-03-23T08:29:33.235Z,11.30
2019-03-23T08:32:14.365Z,11.50
2019-03-23T08:34:55.028Z,11.50
2019-03-23T08:37:35.740Z,11.60
2019-03-23T08:40:16.752Z,11.60
2019-03-23T08:42:57.990Z,11.70
2019-03-23T08:45:38.891Z,11.70
2019-03-23T08:48:19.705Z,11.80
2019-03-23T08:51:00.632Z,11.90
2019-03-23T08:53:41.464Z,12.00
2019-03-23T08:56:10.992Z,12.10
2019-03-23T08:58:38.472Z,12.30
2019-03-23T09:01:26.891Z,12.40
2019-03-23T09:04:15.206Z,12.60
2019-03-23T09:06:55.680Z,12.70
2019-03-23T09:09:36.396Z,12.60
2019-03-23T09:12:17.366Z,12.70
2019-03-23T09:14:58.218Z,12.90
2019-03-23T09:17:39.012Z,12.80
2019-03-23T09:20:20.006Z,12.90
2019-03-23T09:23:00.807Z,12.90
2019-03-23T09:25:41.600Z,13.00
2019-03-23T09:28:22.510Z,13.10
2019-03-23T09:31:03.758Z,13.20
2019-03-23T09:33:44.392Z,13.20
2019-03-23T09:36:25.206Z,13.20
2019-03-23T09:39:06.223Z,13.10
2019-03-23T09:41:47.035Z,13.20
2019-03-23T09:44:27.794Z,13.30
2019-03-23T09:47:08.402Z,13.20
2019-03-23T09:49:49.616Z,13.30
2019-03-23T09:52:30.020Z,13.40
2019-03-23T09:55:11.077Z,13.50
2019-03-23T09:57:51.736Z,13.60
2019-03-23T10:00:32.532Z,13.60
2019-03-23T10:03:13.602Z,13.60
2019-03-23T10:05:54.460Z,13.80
2019-03-23T10:08:24.216Z,13.90
2019-03-23T10:11:12.671Z,13.90
2019-03-23T10:13:53.375Z,13.80
2019-03-23T10:16:34.171Z,13.80
2019-03-23T10:19:15.168Z,13.70
2019-03-23T10:21:56.526Z,13.80
2019-03-23T10:24:37.792Z,13.80
2019-03-23T10:27:18.600Z,13.90
2019-03-23T10:29:59.066Z,13.90
2019-03-23T10:32:39.732Z,13.90
2019-03-23T10:35:20.753Z,14.00
2019-03-23T10:38:01.352Z,14.00
2019-03-23T10:40:42.981Z,14.10
2019-03-23T10:43:23.781Z,14.20
2019-03-23T10:46:04.840Z,14.30
2019-03-23T10:48:45.732Z,14.30
2019-03-23T10:51:26.473Z,14.30
2019-03-23T10:54:07.152Z,14.40
2019-03-23T10:56:47.845Z,14.50
2019-03-23T10:59:29.094Z,14.60
2019-03-23T11:02:09.749Z,14.70
2019-03-23T11:04:50.568Z,14.70
2019-03-23T11:07:31.782Z,14.60
2019-03-23T11:10:12.507Z,14.60
2019-03-23T11:12:53.097Z,14.70
2019-03-23T11:15:33.897Z,14.80
2019-03-23T11:18:15.084Z,14.90
2019-03-23T11:20:55.786Z,14.80
2019-03-23T11:23:36.736Z,14.80
2019-03-23T11:26:17.869Z,15.00
2019-03-23T11:28:58.372Z,15.10
2019-03-23T11:31:39.208Z,14.90
2019-03-23T11:34:20.024Z,14.80
2019-03-23T11:37:00.926Z,14.90
2019-03-23T11:39:30.399Z,14.90
2019-03-23T11:42:10.824Z,14.90
2019-03-23T11:44:51.426Z,15.00
2019-03-23T11:47:32.077Z,15.00
2019-03-23T11:50:13.114Z,15.10
2019-03-23T11:52:54.119Z,15.10
2019-03-23T11:55:34.727Z,15.10
2019-03-23T11:58:15.728Z,15.20
2019-03-23T12:00:56.812Z,15.20
2019-03-23T12:03:38.210Z,15.30
2019-03-23T12:06:18.864Z,15.30
2019-03-23T12:08:59.401Z,15.30
2019-03-23T12:11:40.353Z,15.20
2019-03-23T12:14:21.233Z,15.30
2019-03-23T12:17:02.075Z,15.30
2019-03-23T12:19:42.853Z,15.30
2019-03-23T12:22:23.604Z,15.40
2019-03-23T12:25:04.363Z,15.50
2019-03-23T12:27:45.440Z,15.70
2019-03-23T12:30:26.319Z,15.80
2019-03-23T12:33:07.105Z,16.00
2019-03-23T12:35:47.792Z,16.30
2019-03-23T12:38:28.515Z,16.50
2019-03-23T12:41:18.696Z,16.80
2019-03-23T12:43:51.802Z,16.80
2019-03-23T12:46:32.586Z,17.10
2019-03-23T12:49:13.376Z,17.30
2019-03-23T12:51:54.172Z,17.30
2019-03-23T12:54:35.163Z,17.20
2019-03-23T12:57:15.728Z,17.30
2019-03-23T12:59:56.549Z,17.40
2019-03-23T13:02:37.246Z,17.50
2019-03-23T13:05:17.926Z,17.60
2019-03-23T13:07:58.888Z,17.70
2019-03-23T13:10:40.166Z,17.70
2019-03-23T13:13:21.084Z,17.80
2019-03-23T13:16:01.893Z,18.00
2019-03-23T13:18:42.538Z,18.10
2019-03-23T13:21:23.628Z,18.10
2019-03-23T13:24:04.286Z,18.30
2019-03-23T13:26:44.704Z,18.40
2019-03-23T13:29:25.119Z,18.50
2019-03-23T13:32:05.918Z,18.50
2019-03-23T13:34:47.397Z,18.30
2019-03-23T13:37:28.431Z,18.40
2019-03-23T13:40:09.340Z,18.20
2019-03-23T13:42:49.835Z,18.30
2019-03-23T13:45:30.434Z,18.50
2019-03-23T13:48:11.388Z,18.50
2019-03-23T13:50:52.057Z,18.60
2019-03-23T13:53:33.059Z,18.70
2019-03-23T13:56:13.867Z,18.60
2019-03-23T13:58:54.928Z,18.60
2019-03-23T14:01:35.649Z,18.70
2019-03-23T14:04:16.348Z,19.00
2019-03-23T14:06:56.972Z,19.10
2019-03-23T14:09:37.602Z,19.20
2019-03-23T14:12:18.246Z,19.20
2019-03-23T14:14:58.881Z,19.40
2019-03-23T14:17:39.641Z,19.50
2019-03-23T14:20:20.330Z,19.60
2019-03-23T14:23:02.893Z,19.60
2019-03-23T14:25:43.743Z,19.50
2019-03-23T14:28:24.610Z,19.60
2019-03-23T14:31:05.467Z,20.10
2019-03-23T14:36:26.291Z,20.80
2019-03-23T14:39:06.921Z,20.90
2019-03-23T14:41:47.802Z,21.20
2019-03-23T14:44:28.685Z,21.50
2019-03-23T14:47:09.532Z,22.00
2019-03-23T14:49:50.389Z,22.10
2019-03-23T14:52:31.182Z,22.10
2019-03-23T14:55:00.684Z,22.30
2019-03-23T14:57:49.112Z,22.60
2019-03-23T15:00:29.501Z,22.60
2019-03-23T15:03:10.412Z,22.90
2019-03-23T15:05:51.062Z,22.70
2019-03-23T15:08:32.120Z,22.90
2019-03-23T15:11:12.829Z,23.30
2019-03-23T15:13:53.667Z,23.50
2019-03-23T15:16:34.620Z,23.40
2019-03-23T15:19:15.754Z,23.60
2019-03-23T15:21:57.048Z,23.50
2019-03-23T15:24:37.773Z,23.50
2019-03-23T15:27:18.487Z,23.40
2019-03-23T15:29:59.138Z,23.20
2019-03-23T15:32:39.988Z,23.10
2019-03-23T15:35:21.004Z,22.90
2019-03-23T15:38:01.733Z,23.00
2019-03-23T15:40:42.709Z,23.10
2019-03-23T15:43:12.287Z,22.80
2019-03-23T15:45:53.538Z,22.70
2019-03-23T15:48:34.383Z,22.30
2019-03-23T15:51:15.358Z,21.50
2019-03-23T15:53:55.967Z,20.70
2019-03-23T15:56:36.988Z,20.00
2019-03-23T15:59:17.728Z,19.40
2019-03-23T16:01:58.697Z,19.00
2019-03-23T16:04:39.241Z,18.60
2019-03-23T16:07:29.093Z,18.20
2019-03-23T16:10:02.591Z,17.80
2019-03-23T16:12:43.470Z,17.40
2019-03-23T16:15:24.566Z,17.10
2019-03-23T16:18:05.333Z,16.80
2019-03-23T16:20:46.094Z,16.60
2019-03-23T16:23:26.844Z,16.40
2019-03-23T16:25:56.401Z,16.30
2019-03-23T16:28:44.852Z,16.10
2019-03-23T16:31:26.213Z,15.90
2019-03-23T16:34:07.540Z,15.80
2019-03-23T16:36:48.279Z,15.70
2019-03-23T16:39:31.093Z,15.50
2019-03-23T16:42:11.546Z,15.30
2019-03-23T16:44:52.132Z,15.10
2019-03-23T16:47:32.992Z,15.00
2019-03-23T16:50:14.010Z,14.80
2019-03-23T16:52:54.838Z,14.70
2019-03-23T16:55:35.668Z,14.60
2019-03-23T16:58:16.706Z,14.50
2019-03-23T17:00:57.601Z,14.40
2019-03-23T17:03:38.519Z,14.30
2019-03-23T17:06:19.097Z,14.20
2019-03-23T17:09:00.060Z,14.10
2019-03-23T17:11:40.805Z,14.10
2019-03-23T17:14:21.667Z,14.00
2019-03-23T17:17:02.601Z,13.90
2019-03-23T17:25:00.992Z,13.80
2019-03-23T17:27:41.582Z,13.60
2019-03-23T17:30:22.251Z,13.50
2019-03-23T17:33:02.978Z,13.40
2019-03-23T17:35:43.816Z,13.30
2019-03-23T17:38:24.637Z,13.20
2019-03-23T17:41:05.317Z,13.10
2019-03-23T17:43:46.283Z,12.90
2019-03-23T17:46:27.862Z,12.80
2019-03-23T17:49:09.013Z,12.70
2019-03-23T17:51:49.801Z,12.50
2019-03-23T17:54:19.384Z,12.50
2019-03-23T17:57:07.846Z,12.40
2019-03-23T17:59:56.209Z,12.40
2019-03-23T18:02:37.585Z,12.30
2019-03-23T18:05:18.355Z,12.20
2019-03-23T18:07:59.026Z,12.10
2019-03-23T18:10:39.720Z,11.90
2019-03-23T18:13:20.594Z,11.90
2019-03-23T18:16:01.756Z,11.80
2019-03-23T18:18:42.748Z,11.90
2019-03-23T18:21:23.417Z,11.90
2019-03-23T18:24:04.717Z,11.90
2019-03-23T18:26:45.697Z,11.90
2019-03-23T18:29:26.835Z,11.80
2019-03-23T18:32:07.338Z,11.70
2019-03-23T18:34:48.348Z,11.50
2019-03-23T18:37:28.980Z,11.40
2019-03-23T18:40:09.829Z,11.40
2019-03-23T18:42:50.743Z,11.40
2019-03-23T18:45:31.800Z,11.40
2019-03-23T18:48:12.630Z,11.40
2019-03-23T18:50:53.425Z,11.40
2019-03-23T18:53:34.309Z,11.30
2019-03-23T18:56:14.984Z,11.20
2019-03-23T18:58:55.962Z,11.00
2019-03-23T19:01:36.862Z,10.90
2019-03-23T19:04:17.632Z,10.90
2019-03-23T19:06:58.670Z,10.90
2019-03-23T19:09:39.490Z,11.00
2019-03-23T19:12:20.260Z,11.20
2019-03-23T19:14:49.870Z,11.30
2019-03-23T19:17:38.224Z,11.30
2019-03-23T19:20:18.727Z,11.20
2019-03-23T19:22:59.516Z,11.10
2019-03-23T19:25:40.540Z,11.00
2019-03-23T19:28:21.304Z,10.90
2019-03-23T19:31:02.659Z,10.70
2019-03-23T19:33:43.565Z,10.60
2019-03-23T19:36:24.104Z,10.50
2019-03-23T19:39:05.201Z,10.50
2019-03-23T19:41:46.432Z,10.40
2019-03-23T19:44:27.266Z,10.50
2019-03-23T19:47:07.945Z,10.50
2019-03-23T19:49:48.814Z,10.70
2019-03-23T19:52:29.475Z,10.70
2019-03-23T19:55:11.145Z,10.70
2019-03-23T19:57:54.666Z,10.80
2019-03-23T20:00:34.784Z,10.90
2019-03-23T20:03:15.461Z,11.00
2019-03-23T20:05:56.446Z,11.00
2019-03-23T20:08:37.284Z,10.90
2019-03-23T20:11:06.871Z,10.70
2019-03-23T20:13:58.895Z,10.60
2019-03-23T20:16:45.429Z,10.40
2019-03-23T20:19:26.032Z,10.30
2019-03-23T20:22:06.713Z,10.20
2019-03-23T20:24:47.477Z,10.00
2019-03-23T20:27:28.707Z,9.90
2019-03-23T20:29:58.200Z,9.80
2019-03-23T20:32:27.639Z,9.70
2019-03-23T20:34:57.232Z,9.80
2019-03-23T20:37:45.678Z,9.90
2019-03-23T20:40:34.217Z,9.80
2019-03-23T20:43:03.782Z,9.80
2019-03-23T20:45:52.304Z,9.70
2019-03-23T20:48:33.110Z,9.80
2019-03-23T20:51:13.740Z,9.80
2019-03-23T20:53:54.224Z,10.00
2019-03-23T20:56:34.972Z,9.90
2019-03-23T20:59:15.976Z,9.90
2019-03-23T21:01:56.856Z,9.90
2019-03-23T21:04:37.369Z,10.00
2019-03-23T21:07:18.060Z,9.80
2019-03-23T21:09:58.440Z,9.70
2019-03-23T21:12:39.576Z,9.60
2019-03-23T21:15:20.225Z,9.50
2019-03-23T21:18:00.942Z,9.50
2019-03-23T21:20:41.680Z,9.50
2019-03-23T21:23:11.112Z,9.50
2019-03-23T21:25:59.524Z,9.40
2019-03-23T21:28:40.354Z,9.30
2019-03-23T21:31:21.471Z,9.30
2019-03-23T21:34:02.048Z,9.30
2019-03-23T21:36:42.886Z,9.10
2019-03-23T21:39:23.760Z,9.00
2019-03-23T21:42:04.688Z,9.00
2019-03-23T21:44:34.340Z,9.00
2019-03-23T21:47:22.795Z,9.10
2019-03-23T21:50:03.526Z,9.30
2019-03-23T21:52:44.398Z,9.40
2019-03-23T21:55:25.068Z,9.40
2019-03-23T21:58:06.140Z,9.40
2019-03-23T22:00:47.109Z,9.20
2019-03-23T22:03:27.771Z,9.00
2019-03-23T22:06:08.562Z,8.80
2019-03-23T22:08:49.722Z,8.70
2019-03-23T22:11:30.583Z,8.70
2019-03-23T22:14:11.348Z,8.60
2019-03-23T22:16:52.248Z,8.60
2019-03-23T22:19:32.799Z,8.60
2019-03-23T22:22:13.547Z,8.50
2019-03-23T22:24:54.377Z,8.50
2019-03-23T22:27:35.337Z,8.40
2019-03-23T22:30:16.085Z,8.30
2019-03-23T22:32:56.973Z,8.20
2019-03-23T22:35:37.778Z,8.20
2019-03-23T22:38:18.732Z,8.20
2019-03-23T22:40:59.584Z,8.10
2019-03-23T22:43:40.326Z,8.10
2019-03-23T22:46:21.672Z,8.20
2019-03-23T22:49:02.509Z,8.30
2019-03-23T22:51:43.325Z,8.30
2019-03-23T22:54:24.044Z,8.20
2019-03-23T22:57:04.826Z,8.00
2019-03-23T22:59:45.732Z,7.90
2019-03-23T23:02:15.308Z,7.80
2019-03-23T23:05:03.760Z,7.80
2019-03-23T23:07:52.186Z,7.80
2019-03-23T23:10:32.968Z,7.90
2019-03-23T23:13:13.728Z,7.80
2019-03-23T23:15:54.791Z,7.70
2019-03-23T23:18:35.577Z,7.60
2019-03-23T23:21:16.410Z,7.70
2019-03-23T23:23:57.144Z,7.70
2019-03-23T23:26:37.976Z,7.70
2019-03-23T23:29:18.808Z,7.60
2019-03-23T23:31:59.924Z,7.60
2019-03-23T23:34:40.599Z,7.60
2019-03-23T23:37:21.357Z,7.60
2019-03-23T23:40:02.230Z,7.50
2019-03-23T23:42:42.936Z,7.40
2019-03-23T23:45:23.747Z,7.20
2019-03-23T23:48:04.568Z,7.10
2019-03-23T23:50:45.388Z,7.10
2019-03-23T23:53:26.212Z,7.10
2019-03-23T23:56:07.232Z,7.10
2019-03-23T23:58:47.733Z,7.10
